createdAt,value
2022-08-27T00:00:19.133Z,99464.66
2022-08-27T00:02:46.054Z,99468.19
2022-08-27T00:05:14.792Z,99464.94
2022-08-27T00:07:42.424Z,99467.09
2022-08-27T00:10:13.342Z,99464.72
2022-08-27T00:12:40.015Z,99468.63
2022-08-27T00:15:07.732Z,99470.41
2022-08-27T00:17:35.208Z,99471.44
2022-08-27T00:20:02.510Z,99467.66
2022-08-27T00:22:29.137Z,99473.03
2022-08-27T00:24:55.753Z,99468.34
2022-08-27T00:27:22.385Z,99471.41
2022-08-27T00:29:49.517Z,99476.19
2022-08-27T00:32:17.052Z,99483.50
2022-08-27T00:34:44.109Z,99490.28
2022-08-27T00:37:11.053Z,99495.66
2022-08-27T00:39:37.684Z,99485.06
2022-08-27T00:42:05.923Z,99490.09
2022-08-27T00:44:33.309Z,99491.13
2022-08-27T00:47:04.743Z,99479.72
2022-08-27T00:49:43.007Z,99495.19
2022-08-27T00:52:51.505Z,99485.31
2022-08-27T00:55:24.187Z,99497.47
2022-08-27T00:58:12.577Z,99498.44
2022-08-27T01:00:39.445Z,99499.69
2022-08-27T01:03:06.528Z,99501.66
2022-08-27T01:05:34.937Z,99494.06
2022-08-27T01:08:08.203Z,99490.34
2022-08-27T01:10:35.838Z,99499.31
2022-08-27T01:13:03.185Z,99498.22
2022-08-27T01:15:30.527Z,99500.19
2022-08-27T01:17:58.922Z,99503.22
2022-08-27T01:20:38.189Z,99502.75
2022-08-27T01:23:08.340Z,99500.78
2022-08-27T01:25:35.256Z,99503.09
2022-08-27T01:28:03.571Z,99499.84
2022-08-27T01:30:31.329Z,99496.94
2022-08-27T01:32:57.980Z,99496.53
2022-08-27T01:35:25.586Z,99492.63
2022-08-27T01:37:57.110Z,99502.38
2022-08-27T01:40:24.487Z,99498.09
2022-08-27T01:42:55.100Z,99498.75
2022-08-27T01:45:33.366Z,99504.97
2022-08-27T01:48:00.786Z,99497.19
2022-08-27T01:50:33.213Z,99500.84
2022-08-27T01:53:09.098Z,99504.41
2022-08-27T01:55:35.737Z,99502.56
2022-08-27T01:58:02.693Z,99505.69
2022-08-27T02:00:33.308Z,99506.03
2022-08-27T02:03:00.028Z,99502.16
2022-08-27T02:05:28.390Z,99501.03
2022-08-27T02:07:56.223Z,99494.63
2022-08-27T02:10:26.708Z,99503.38
2022-08-27T02:12:53.441Z,99495.25
2022-08-27T02:15:22.571Z,99499.78
2022-08-27T02:17:49.500Z,99496.53
2022-08-27T02:20:17.176Z,99499.66
2022-08-27T02:22:44.568Z,99493.59
2022-08-27T02:25:13.480Z,99496.16
2022-08-27T02:27:42.302Z,99495.94
2022-08-27T02:30:11.386Z,99503.56
2022-08-27T02:32:38.111Z,99490.84
2022-08-27T02:35:05.699Z,99499.22
2022-08-27T02:37:32.765Z,99495.06
2022-08-27T02:39:59.468Z,99497.28
2022-08-27T02:42:26.155Z,99495.31
2022-08-27T02:44:52.783Z,99493.41
2022-08-27T02:47:19.478Z,99487.78
2022-08-27T02:49:46.095Z,99490.81
2022-08-27T02:52:12.832Z,99487.66
2022-08-27T02:54:40.177Z,99483.38
2022-08-27T02:57:06.788Z,99489.09
2022-08-27T02:59:33.509Z,99493.34
2022-08-27T03:02:00.298Z,99497.00
2022-08-27T03:04:27.461Z,99501.25
2022-08-27T03:06:54.102Z,99493.09
2022-08-27T03:09:21.325Z,99498.94
2022-08-27T03:11:48.004Z,99493.94
2022-08-27T03:14:14.753Z,99489.47
2022-08-27T03:16:41.498Z,99495.53
2022-08-27T03:19:08.372Z,99494.28
2022-08-27T03:21:35.875Z,99492.38
2022-08-27T03:24:11.245Z,99490.53
2022-08-27T03:26:38.563Z,99496.34
2022-08-27T03:29:05.378Z,99497.44
2022-08-27T03:31:32.067Z,99496.69
2022-08-27T03:34:01.992Z,99500.38
2022-08-27T03:36:30.662Z,99496.72
2022-08-27T03:38:58.238Z,99500.25
2022-08-27T03:41:54.009Z,99503.91
2022-08-27T03:44:18.470Z,99498.31
2022-08-27T03:46:51.312Z,99497.09
2022-08-27T03:49:21.413Z,99506.16
2022-08-27T03:51:50.083Z,99492.94
2022-08-27T03:54:16.787Z,99493.53
2022-08-27T03:56:43.464Z,99495.97
2022-08-27T03:59:10.150Z,99495.47
2022-08-27T04:01:36.838Z,99503.13
2022-08-27T04:04:04.070Z,99500.91
2022-08-27T04:06:30.710Z,99502.13
2022-08-27T04:08:57.350Z,99497.88
2022-08-27T04:11:23.992Z,99509.28
2022-08-27T04:13:50.596Z,99502.28
2022-08-27T04:16:18.488Z,99509.53
2022-08-27T04:18:45.208Z,99507.09
2022-08-27T04:21:13.797Z,99506.63
2022-08-27T04:23:41.764Z,99510.03
2022-08-27T04:26:11.031Z,99511.75
2022-08-27T04:28:38.969Z,99509.50
2022-08-27T04:31:12.967Z,99507.81
2022-08-27T04:33:44.051Z,99511.44
2022-08-27T04:36:18.351Z,99513.63
2022-08-27T04:38:45.078Z,99506.34
2022-08-27T04:41:12.200Z,99512.94
2022-08-27T04:43:38.861Z,99508.59
2022-08-27T04:46:05.721Z,99504.59
2022-08-27T04:48:32.915Z,99511.53
2022-08-27T04:50:59.549Z,99513.31
2022-08-27T04:53:26.467Z,99512.09
2022-08-27T04:55:55.427Z,99510.53
2022-08-27T04:58:24.359Z,99508.72
2022-08-27T05:00:54.551Z,99512.19
2022-08-27T05:03:23.579Z,99506.34
2022-08-27T05:05:52.115Z,99498.25
2022-08-27T05:08:19.345Z,99509.00
2022-08-27T05:10:48.786Z,99513.66
2022-08-27T05:13:18.103Z,99513.44
2022-08-27T05:15:44.937Z,99512.44
2022-08-27T05:18:12.353Z,99512.69
2022-08-27T05:20:46.560Z,99513.31
2022-08-27T05:23:17.503Z,99518.03
2022-08-27T05:25:47.457Z,99518.50
2022-08-27T05:28:15.745Z,99518.28
2022-08-27T05:30:49.269Z,99526.63
2022-08-27T05:33:25.056Z,99534.97
2022-08-27T05:35:54.591Z,99535.91
2022-08-27T05:38:22.890Z,99528.59
2022-08-27T05:40:49.539Z,99526.75
2022-08-27T05:43:18.236Z,99519.94
2022-08-27T05:45:47.403Z,99528.13
2022-08-27T05:48:14.955Z,99521.97
2022-08-27T05:50:43.851Z,99523.69
2022-08-27T05:53:12.579Z,99513.50
2022-08-27T05:55:44.951Z,99510.31
2022-08-27T05:58:13.443Z,99510.09
2022-08-27T06:00:40.074Z,99512.88
2022-08-27T06:03:07.231Z,99521.91
2022-08-27T06:05:34.063Z,99520.56
2022-08-27T06:08:00.790Z,99522.41
2022-08-27T06:10:27.534Z,99519.75
2022-08-27T06:12:57.037Z,99505.16
2022-08-27T06:15:23.842Z,99507.94
2022-08-27T06:17:50.484Z,99512.69
2022-08-27T06:20:17.115Z,99510.63
2022-08-27T06:22:43.833Z,99518.75
2022-08-27T06:25:10.455Z,99523.13
2022-08-27T06:27:37.101Z,99518.84
2022-08-27T06:30:04.502Z,99522.25
2022-08-27T06:32:31.116Z,99529.53
2022-08-27T06:34:57.768Z,99531.97
2022-08-27T06:37:24.448Z,99533.94
2022-08-27T06:39:51.382Z,99536.28
2022-08-27T06:42:18.050Z,99532.75
2022-08-27T06:44:44.753Z,99538.81
2022-08-27T06:47:11.741Z,99537.56
2022-08-27T06:49:40.635Z,99542.69
2022-08-27T06:52:07.289Z,99550.03
2022-08-27T06:54:35.908Z,99551.34
2022-08-27T06:57:02.581Z,99543.16
2022-08-27T06:59:30.483Z,99557.19
2022-08-27T07:01:57.494Z,99548.09
2022-08-27T07:04:32.689Z,99554.66
2022-08-27T07:07:01.028Z,99549.41
2022-08-27T07:09:27.695Z,99554.06
2022-08-27T07:11:54.306Z,99552.09
2022-08-27T07:14:20.980Z,99555.47
2022-08-27T07:16:48.313Z,99565.94
2022-08-27T07:19:17.319Z,99562.66
2022-08-27T07:21:44.230Z,99569.88
2022-08-27T07:24:12.255Z,99566.03
2022-08-27T07:26:42.126Z,99566.94
2022-08-27T07:29:11.265Z,99573.25
2022-08-27T07:31:38.856Z,99567.78
2022-08-27T07:34:06.995Z,99575.69
2022-08-27T07:36:35.046Z,99575.09
2022-08-27T07:39:02.110Z,99580.91
2022-08-27T07:41:31.376Z,99584.41
2022-08-27T07:44:02.759Z,99581.06
2022-08-27T07:46:29.433Z,99579.09
2022-08-27T07:48:56.706Z,99580.38
2022-08-27T07:51:25.080Z,99567.75
2022-08-27T07:53:52.536Z,99570.44
2022-08-27T07:56:19.126Z,99571.88
2022-08-27T07:58:46.165Z,99575.59
2022-08-27T08:01:13.310Z,99567.59
2022-08-27T08:03:40.996Z,99568.78
2022-08-27T08:06:12.449Z,99568.53
2022-08-27T08:08:40.742Z,99575.13
2022-08-27T08:11:08.774Z,99569.66
2022-08-27T08:13:36.463Z,99567.75
2022-08-27T08:16:03.415Z,99566.72
2022-08-27T08:18:30.075Z,99569.28
2022-08-27T08:21:01.652Z,99571.78
2022-08-27T08:23:28.740Z,99575.19
2022-08-27T08:25:55.830Z,99572.19
2022-08-27T08:28:22.492Z,99566.91
2022-08-27T08:30:49.300Z,99568.03
2022-08-27T08:33:15.932Z,99575.59
2022-08-27T08:35:42.669Z,99570.25
2022-08-27T08:38:10.237Z,99570.31
2022-08-27T08:40:43.427Z,99576.63
2022-08-27T08:43:33.328Z,99580.28
2022-08-27T08:46:21.824Z,99578.94
2022-08-27T08:48:54.820Z,99576.66
2022-08-27T08:51:39.134Z,99579.63
2022-08-27T08:54:20.102Z,99578.63
2022-08-27T08:56:57.447Z,99577.63
2022-08-27T08:59:31.946Z,99580.16
2022-08-27T09:01:59.038Z,99578.28
2022-08-27T09:04:30.048Z,99588.59
2022-08-27T09:07:09.898Z,99582.28
2022-08-27T09:09:47.577Z,99580.97
2022-08-27T09:12:19.497Z,99578.63
2022-08-27T09:14:53.100Z,99584.03
2022-08-27T09:17:20.853Z,99582.88
2022-08-27T09:19:48.473Z,99579.84
2022-08-27T09:22:39.544Z,99570.69
2022-08-27T09:25:25.412Z,99570.25
2022-08-27T09:27:56.861Z,99558.75
2022-08-27T09:30:30.571Z,99553.63
2022-08-27T09:33:03.131Z,99556.78
2022-08-27T09:35:41.067Z,99560.72
2022-08-27T09:38:08.427Z,99556.53
2022-08-27T09:40:45.755Z,99546.13
2022-08-27T09:43:25.776Z,99550.59
2022-08-27T09:45:58.417Z,99555.09
2022-08-27T09:48:29.420Z,99546.28
2022-08-27T09:51:08.336Z,99548.00
2022-08-27T09:53:44.745Z,99552.00
2022-08-27T09:56:24.640Z,99550.34
2022-08-27T09:58:54.648Z,99546.81
2022-08-27T10:01:26.848Z,99554.94
2022-08-27T10:04:27.461Z,99549.94
2022-08-27T10:06:54.210Z,99552.91
2022-08-27T10:09:33.396Z,99552.03
2022-08-27T10:12:16.909Z,99547.16
2022-08-27T10:14:52.454Z,99548.75
2022-08-27T10:17:25.582Z,99541.78
2022-08-27T10:20:16.459Z,99550.50
2022-08-27T10:23:19.107Z,99551.84
2022-08-27T10:25:59.309Z,99544.69
2022-08-27T10:28:31.485Z,99547.22
2022-08-27T10:31:13.280Z,99546.84
2022-08-27T10:33:42.731Z,99548.69
2022-08-27T10:36:34.220Z,99549.50
2022-08-27T10:39:13.053Z,99540.97
2022-08-27T10:41:51.576Z,99544.06
2022-08-27T10:44:38.891Z,99543.84
2022-08-27T10:47:32.766Z,99542.25
2022-08-27T10:50:10.860Z,99538.56
2022-08-27T10:52:54.099Z,99541.19
2022-08-27T10:55:42.413Z,99539.09
2022-08-27T10:58:33.381Z,99531.81
2022-08-27T11:01:18.053Z,99537.41
2022-08-27T11:03:51.419Z,99531.03
2022-08-27T11:06:41.496Z,99529.59
2022-08-27T11:09:17.912Z,99530.53
2022-08-27T11:14:45.998Z,99532.78
2022-08-27T11:17:25.360Z,99531.63
2022-08-27T11:20:28.817Z,99533.78
2022-08-27T11:23:15.579Z,99526.22
2022-08-27T11:26:01.095Z,99520.28
2022-08-27T11:28:46.584Z,99528.94
2022-08-27T11:31:27.902Z,99520.19
2022-08-27T11:34:00.499Z,99527.22
2022-08-27T11:36:27.128Z,99521.88
2022-08-27T11:39:14.485Z,99512.16
2022-08-27T11:42:09.514Z,99513.88
2022-08-27T11:44:48.645Z,99513.69
2022-08-27T11:47:25.167Z,99513.72
2022-08-27T11:49:59.557Z,99506.84
2022-08-27T11:52:35.581Z,99507.09
2022-08-27T11:55:27.517Z,99511.50
2022-08-27T11:58:09.252Z,99502.41
2022-08-27T12:00:41.202Z,99503.03
2022-08-27T12:03:23.319Z,99495.97
2022-08-27T12:06:09.811Z,99489.53
2022-08-27T12:08:37.789Z,99500.13
2022-08-27T12:11:29.023Z,99491.34
2022-08-27T12:13:58.362Z,99494.41
2022-08-27T12:16:42.462Z,99488.09
2022-08-27T12:19:16.002Z,99480.53
2022-08-27T12:21:48.634Z,99486.16
2022-08-27T12:24:21.121Z,99484.44
2022-08-27T12:26:58.146Z,99487.78
2022-08-27T12:29:27.766Z,99476.78
2022-08-27T12:32:44.213Z,99470.84
2022-08-27T12:35:17.885Z,99466.19
2022-08-27T12:37:44.437Z,99476.13
2022-08-27T12:40:40.380Z,99474.25
2022-08-27T12:43:09.178Z,99458.75
2022-08-27T12:45:50.561Z,99460.75
2022-08-27T12:48:46.681Z,99449.03
2022-08-27T12:51:33.977Z,99446.81
2022-08-27T12:54:02.863Z,99441.28
2022-08-27T12:56:44.825Z,99443.31
2022-08-27T12:59:52.548Z,99447.06
2022-08-27T13:02:32.147Z,99440.56
2022-08-27T13:05:03.450Z,99444.97
2022-08-27T13:07:42.785Z,99443.50
2022-08-27T13:10:16.505Z,99434.47
2022-08-27T13:12:46.119Z,99435.34
2022-08-27T13:15:15.674Z,99433.59
2022-08-27T13:17:46.644Z,99441.03
2022-08-27T13:20:21.983Z,99435.00
2022-08-27T13:22:49.712Z,99442.78
2022-08-27T13:25:32.884Z,99436.03
2022-08-27T13:28:08.798Z,99442.84
2022-08-27T13:30:47.081Z,99436.91
2022-08-27T13:33:25.282Z,99436.56
2022-08-27T13:35:52.057Z,99441.19
2022-08-27T13:38:21.656Z,99446.44
2022-08-27T13:41:10.320Z,99434.50
2022-08-27T13:43:43.655Z,99446.50
2022-08-27T13:46:18.205Z,99443.72
2022-08-27T13:48:49.312Z,99432.59
2022-08-27T13:51:28.956Z,99438.47
2022-08-27T13:53:56.316Z,99441.22
2022-08-27T13:56:32.576Z,99434.50
2022-08-27T13:59:26.093Z,99433.22
2022-08-27T14:02:11.204Z,99439.88
2022-08-27T14:04:43.778Z,99434.88
2022-08-27T14:07:32.415Z,99438.50
2022-08-27T14:10:04.513Z,99447.28
2022-08-27T14:12:35.861Z,99431.50
2022-08-27T14:15:48.260Z,99434.09
2022-08-27T14:18:37.175Z,99437.41
2022-08-27T14:21:09.090Z,99442.44
2022-08-27T14:23:35.790Z,99438.88
2022-08-27T14:26:02.932Z,99441.81
2022-08-27T14:28:29.658Z,99435.28
2022-08-27T14:30:56.316Z,99431.41
2022-08-27T14:33:22.991Z,99428.38
2022-08-27T14:35:49.650Z,99435.75
2022-08-27T14:38:20.017Z,99429.34
2022-08-27T14:40:48.162Z,99430.97
2022-08-27T14:43:18.214Z,99430.09
2022-08-27T14:45:51.685Z,99433.69
2022-08-27T14:48:28.835Z,99422.72
2022-08-27T14:50:56.698Z,99431.53
2022-08-27T14:53:24.067Z,99429.66
2022-08-27T14:55:51.664Z,99434.91
2022-08-27T14:58:18.685Z,99427.34
2022-08-27T15:00:45.303Z,99427.81
2022-08-27T15:03:15.733Z,99427.75
2022-08-27T15:05:43.034Z,99431.25
2022-08-27T15:08:13.103Z,99437.63
2022-08-27T15:10:40.517Z,99436.53
2022-08-27T15:13:07.158Z,99432.72
2022-08-27T15:15:33.985Z,99435.22
2022-08-27T15:18:01.853Z,99437.19
2022-08-27T15:20:28.471Z,99432.72
2022-08-27T15:22:55.103Z,99435.53
2022-08-27T15:25:22.421Z,99438.13
2022-08-27T15:27:49.791Z,99448.63
2022-08-27T15:30:18.348Z,99441.63
2022-08-27T15:32:47.571Z,99444.91
2022-08-27T15:35:18.366Z,99447.31
2022-08-27T15:37:45.835Z,99432.34
2022-08-27T15:40:15.612Z,99445.63
2022-08-27T15:42:42.906Z,99439.69
2022-08-27T15:45:12.461Z,99438.78
2022-08-27T15:47:39.418Z,99440.91
2022-08-27T15:50:06.930Z,99441.22
2022-08-27T15:52:40.828Z,99443.72
2022-08-27T15:55:19.586Z,99441.41
2022-08-27T15:57:46.559Z,99443.41
2022-08-27T16:00:13.666Z,99455.03
2022-08-27T16:02:41.867Z,99440.50
2022-08-27T16:05:08.593Z,99446.28
2022-08-27T16:07:35.188Z,99435.69
2022-08-27T16:10:04.213Z,99437.66
2022-08-27T16:12:30.821Z,99441.97
2022-08-27T16:14:57.424Z,99440.63
2022-08-27T16:17:26.421Z,99439.28
2022-08-27T16:19:53.533Z,99442.03
2022-08-27T16:22:20.166Z,99440.75
2022-08-27T16:24:46.861Z,99441.41
2022-08-27T16:27:13.502Z,99439.94
2022-08-27T16:29:40.190Z,99449.59
2022-08-27T16:32:13.355Z,99446.25
2022-08-27T16:34:40.176Z,99450.09
2022-08-27T16:37:09.840Z,99446.53
2022-08-27T16:39:40.443Z,99443.09
2022-08-27T16:42:08.396Z,99437.31
2022-08-27T16:44:35.012Z,99432.03
2022-08-27T16:47:01.780Z,99438.44
2022-08-27T16:49:28.403Z,99439.63
2022-08-27T16:51:55.245Z,99442.25
2022-08-27T16:54:21.972Z,99440.63
2022-08-27T16:56:48.613Z,99444.00
2022-08-27T16:59:15.236Z,99435.22
2022-08-27T17:01:42.360Z,99443.78
2022-08-27T17:04:17.258Z,99437.63
2022-08-27T17:06:50.605Z,99437.53
2022-08-27T17:09:18.233Z,99439.72
2022-08-27T17:11:53.760Z,99441.81
2022-08-27T17:14:20.498Z,99443.41
2022-08-27T17:16:47.167Z,99455.97
2022-08-27T17:19:16.653Z,99460.47
2022-08-27T17:21:45.284Z,99457.03
2022-08-27T17:24:13.062Z,99457.97
2022-08-27T17:26:40.245Z,99467.78
2022-08-27T17:29:06.941Z,99469.44
2022-08-27T17:31:36.316Z,99479.47
2022-08-27T17:34:04.550Z,99482.88
2022-08-27T17:36:31.666Z,99482.75
2022-08-27T17:39:00.210Z,99495.56
2022-08-27T17:41:28.707Z,99498.31
2022-08-27T17:44:01.485Z,99504.34
2022-08-27T17:46:29.034Z,99509.63
2022-08-27T17:48:55.763Z,99516.88
2022-08-27T17:51:22.746Z,99518.63
2022-08-27T17:53:55.950Z,99520.09
2022-08-27T17:56:26.550Z,99524.38
2022-08-27T17:58:54.135Z,99520.88
2022-08-27T18:01:30.755Z,99520.63
2022-08-27T18:03:58.602Z,99525.72
2022-08-27T18:06:26.867Z,99528.75
2022-08-27T18:08:54.266Z,99517.25
2022-08-27T18:11:21.278Z,99523.19
2022-08-27T18:13:52.972Z,99531.09
2022-08-27T18:16:20.603Z,99532.03
2022-08-27T18:18:47.665Z,99537.84
2022-08-27T18:21:25.174Z,99534.97
2022-08-27T18:23:53.429Z,99532.13
2022-08-27T18:26:21.964Z,99527.06
2022-08-27T18:28:49.167Z,99526.41
2022-08-27T18:31:18.848Z,99535.03
2022-08-27T18:33:45.969Z,99537.56
2022-08-27T18:36:12.620Z,99537.56
2022-08-27T18:38:39.367Z,99535.97
2022-08-27T18:41:08.370Z,99533.78
2022-08-27T18:43:35.885Z,99536.84
2022-08-27T18:46:04.153Z,99534.47
2022-08-27T18:48:30.967Z,99534.63
2022-08-27T18:51:00.174Z,99535.28
2022-08-27T18:53:30.404Z,99541.84
2022-08-27T18:55:57.041Z,99539.31
2022-08-27T18:58:24.190Z,99534.22
2022-08-27T19:00:55.174Z,99541.50
2022-08-27T19:03:26.697Z,99542.81
2022-08-27T19:05:54.934Z,99547.50
2022-08-27T19:08:24.362Z,99540.69
2022-08-27T19:10:51.018Z,99544.56
2022-08-27T19:13:17.766Z,99545.75
2022-08-27T19:15:52.001Z,99543.25
2022-08-27T19:18:19.185Z,99537.31
2022-08-27T19:20:45.843Z,99532.47
2022-08-27T19:23:12.624Z,99539.53
2022-08-27T19:25:39.558Z,99531.91
2022-08-27T19:28:06.393Z,99528.69
2022-08-27T19:30:33.138Z,99521.91
2022-08-27T19:32:59.831Z,99519.88
2022-08-27T19:35:26.464Z,99515.13
2022-08-27T19:37:53.530Z,99513.28
2022-08-27T19:40:23.998Z,99511.31
2022-08-27T19:42:50.921Z,99501.88
2022-08-27T19:45:23.108Z,99507.91
2022-08-27T19:47:51.776Z,99511.72
2022-08-27T19:50:18.723Z,99502.50
2022-08-27T19:52:45.461Z,99505.75
2022-08-27T19:55:14.295Z,99502.09
2022-08-27T19:57:42.934Z,99511.25
2022-08-27T20:00:12.339Z,99513.94
2022-08-27T20:02:39.118Z,99510.59
2022-08-27T20:05:17.875Z,99520.44
2022-08-27T20:07:49.499Z,99520.28
2022-08-27T20:10:18.206Z,99528.47
2022-08-27T20:12:45.260Z,99542.03
2022-08-27T20:15:12.364Z,99534.13
2022-08-27T20:17:39.416Z,99530.94
2022-08-27T20:20:07.291Z,99538.72
2022-08-27T20:22:33.952Z,99542.78
2022-08-27T20:25:00.666Z,99540.56
2022-08-27T20:27:27.290Z,99549.75
2022-08-27T20:29:53.970Z,99543.19
2022-08-27T20:32:21.596Z,99547.09
2022-08-27T20:34:48.811Z,99547.00
2022-08-27T20:37:16.665Z,99548.63
2022-08-27T20:39:43.334Z,99548.53
2022-08-27T20:42:10.023Z,99540.19
2022-08-27T20:44:38.025Z,99535.38
2022-08-27T20:47:05.064Z,99533.84
2022-08-27T20:49:31.758Z,99539.22
2022-08-27T20:52:03.271Z,99539.44
2022-08-27T20:54:32.196Z,99539.38
2022-08-27T20:56:58.906Z,99545.28
2022-08-27T20:59:26.201Z,99549.53
2022-08-27T21:01:52.935Z,99549.53
2022-08-27T21:04:19.636Z,99544.75
2022-08-27T21:06:46.328Z,99553.41
2022-08-27T21:09:12.966Z,99556.16
2022-08-27T21:11:39.595Z,99562.28
2022-08-27T21:14:06.273Z,99559.31
2022-08-27T21:16:33.038Z,99562.00
2022-08-27T21:18:59.695Z,99556.19
2022-08-27T21:21:26.551Z,99560.78
2022-08-27T21:23:53.170Z,99572.97
2022-08-27T21:26:19.889Z,99574.13
2022-08-27T21:28:46.529Z,99561.97
2022-08-27T21:31:13.334Z,99565.66
2022-08-27T21:33:40.130Z,99565.09
2022-08-27T21:36:11.312Z,99571.06
2022-08-27T21:38:38.944Z,99575.00
2022-08-27T21:41:05.762Z,99582.97
2022-08-27T21:43:32.588Z,99572.19
2022-08-27T21:45:59.243Z,99584.69
2022-08-27T21:48:26.498Z,99581.63
2022-08-27T21:50:53.711Z,99576.66
2022-08-27T21:53:21.538Z,99580.63
2022-08-27T21:55:52.372Z,99581.75
2022-08-27T21:58:23.332Z,99584.69
2022-08-27T22:00:53.028Z,99590.38
2022-08-27T22:03:21.670Z,99592.94
2022-08-27T22:05:49.496Z,99587.44
2022-08-27T22:08:18.718Z,99583.06
2022-08-27T22:10:48.761Z,99585.03
2022-08-27T22:13:15.798Z,99583.34
2022-08-27T22:15:42.507Z,99584.47
2022-08-27T22:18:09.583Z,99576.25
2022-08-27T22:20:36.555Z,99573.84
2022-08-27T22:23:06.472Z,99574.28
2022-08-27T22:25:33.727Z,99570.59
2022-08-27T22:28:00.375Z,99569.91
2022-08-27T22:30:27.068Z,99577.97
2022-08-27T22:32:53.720Z,99566.94
2022-08-27T22:35:20.953Z,99568.19
2022-08-27T22:37:47.647Z,99563.81
2022-08-27T22:40:19.197Z,99565.50
2022-08-27T22:42:46.400Z,99565.50
2022-08-27T22:45:13.186Z,99570.19
2022-08-27T22:47:39.822Z,99566.06
2022-08-27T22:50:07.323Z,99566.22
2022-08-27T22:52:34.034Z,99565.38
2022-08-27T22:55:00.690Z,99563.66
2022-08-27T22:57:27.532Z,99566.50
2022-08-27T22:59:54.191Z,99573.44
2022-08-27T23:02:21.061Z,99568.19
2022-08-27T23:04:55.778Z,99560.28
2022-08-27T23:07:23.960Z,99565.19
2022-08-27T23:09:50.923Z,99563.47
2022-08-27T23:12:17.622Z,99562.22
2022-08-27T23:14:44.283Z,99567.31
2022-08-27T23:17:10.889Z,99570.13
2022-08-27T23:19:37.569Z,99567.47
2022-08-27T23:22:06.647Z,99570.28
2022-08-27T23:24:34.392Z,99568.28
2022-08-27T23:27:01.005Z,99568.16
2022-08-27T23:29:27.945Z,99566.47
2022-08-27T23:31:55.028Z,99575.22
2022-08-27T23:34:21.668Z,99579.56
2022-08-27T23:36:48.359Z,99570.47
2022-08-27T23:39:15.676Z,99571.44
2022-08-27T23:41:43.291Z,99571.75
2022-08-27T23:44:13.060Z,99567.56
2022-08-27T23:46:40.077Z,99568.75
2022-08-27T23:49:06.756Z,99560.31
2022-08-27T23:51:33.468Z,99567.09
2022-08-27T23:54:00.202Z,99573.22
2022-08-27T23:56:28.100Z,99585.06
2022-08-27T23:58:56.980Z,99612.13
